createdAt,value
2022-11-05T00:00:44.371Z,10.67
2022-11-05T00:01:16.403Z,10.67
2022-11-05T00:02:15.778Z,10.64
2022-11-05T00:03:16.562Z,10.64
2022-11-05T00:04:15.805Z,10.64
2022-11-05T00:05:16.354Z,10.61
2022-11-05T00:06:15.662Z,10.57
2022-11-05T00:07:16.412Z,10.58
2022-11-05T00:08:15.348Z,10.56
2022-11-05T00:09:15.723Z,10.56
2022-11-05T00:10:16.071Z,10.54
2022-11-05T00:11:23.563Z,10.51
2022-11-05T00:12:15.947Z,10.51
2022-11-05T00:13:16.802Z,10.5
2022-11-05T00:14:16.072Z,10.46
2022-11-05T00:15:15.884Z,10.43
2022-11-05T00:16:16.409Z,10.42
2022-11-05T00:17:16.229Z,10.36
2022-11-05T00:18:15.691Z,10.35
2022-11-05T00:19:16.250Z,10.35
2022-11-05T00:20:16.121Z,10.35
2022-11-05T00:21:15.784Z,10.34
2022-11-05T00:22:16.248Z,10.30
2022-11-05T00:23:16.304Z,10.28
2022-11-05T00:24:18.218Z,10.27
2022-11-05T00:25:16.935Z,10.24
2022-11-05T00:26:16.731Z,10.19
2022-11-05T00:27:16.221Z,10.18
2022-11-05T00:28:15.500Z,10.16
2022-11-05T00:29:16.104Z,10.19
2022-11-05T00:30:15.888Z,10.18
2022-11-05T00:31:16.521Z,10.18
2022-11-05T00:32:15.723Z,10.18
2022-11-05T00:33:16.691Z,10.18
2022-11-05T00:34:16.077Z,10.18
2022-11-05T00:35:15.450Z,10.16
2022-11-05T00:36:15.821Z,10.14
2022-11-05T00:37:16.201Z,10.10
2022-11-05T00:38:15.596Z,10.09
2022-11-05T00:39:16.264Z,10.11
2022-11-05T00:40:15.444Z,10.12
2022-11-05T00:41:15.887Z,10.10
2022-11-05T00:42:16.120Z,10.07
2022-11-05T00:43:16.199Z,10.07
2022-11-05T00:44:15.329Z,10.06
2022-11-05T00:45:15.613Z,10.08
2022-11-05T00:46:15.902Z,10.07
2022-11-05T00:47:16.541Z,10.07
2022-11-05T00:48:15.946Z,10.07
2022-11-05T00:49:16.380Z,10.07
2022-11-05T00:50:15.515Z,10.06
2022-11-05T00:51:15.936Z,10.06
2022-11-05T00:52:15.958Z,10.04
2022-11-05T00:53:17.122Z,10.03
2022-11-05T00:54:15.180Z,9.993
2022-11-05T00:55:15.454Z,9.976
2022-11-05T00:56:15.400Z,9.958
2022-11-05T00:57:15.656Z,9.984
2022-11-05T00:58:15.806Z,9.983
2022-11-05T00:59:16.152Z,9.988
2022-11-05T01:00:16.671Z,9.965
2022-11-05T01:01:18.700Z,9.941
2022-11-05T01:02:16.870Z,9.946
2022-11-05T01:03:17.210Z,9.935
2022-11-05T01:04:15.474Z,9.909
2022-11-05T01:05:16.173Z,9.913
2022-11-05T01:06:15.847Z,9.918
2022-11-05T01:07:16.313Z,9.898
2022-11-05T01:08:15.211Z,9.904
2022-11-05T01:09:15.726Z,9.885
2022-11-05T01:10:16.296Z,9.876
2022-11-05T01:11:15.635Z,9.854
2022-11-05T01:12:16.036Z,9.843
2022-11-05T01:13:19.739Z,9.848
2022-11-05T01:14:15.406Z,9.845
2022-11-05T01:15:15.983Z,9.811
2022-11-05T01:16:15.244Z,9.800
2022-11-05T01:17:15.458Z,9.779
2022-11-05T01:18:15.616Z,9.741
2022-11-05T01:19:15.798Z,9.736
2022-11-05T01:20:16.171Z,9.734
2022-11-05T01:21:15.346Z,9.745
2022-11-05T01:22:15.862Z,9.732
2022-11-05T01:23:20.009Z,9.732
2022-11-05T01:24:15.622Z,9.732
2022-11-05T01:25:16.061Z,9.687
2022-11-05T01:26:15.516Z,9.713
2022-11-05T01:27:16.272Z,9.677
2022-11-05T01:28:15.520Z,9.657
2022-11-05T01:29:15.950Z,9.672
2022-11-05T01:30:16.794Z,9.673
2022-11-05T01:31:15.852Z,9.668
2022-11-05T01:32:16.104Z,9.609
2022-11-05T01:33:15.968Z,9.617
2022-11-05T01:34:16.248Z,9.626
2022-11-05T01:35:15.856Z,9.618
2022-11-05T01:36:15.871Z,9.604
2022-11-05T01:37:16.128Z,9.615
2022-11-05T01:38:15.319Z,9.612
2022-11-05T01:39:15.944Z,9.581
2022-11-05T01:40:16.440Z,9.567
2022-11-05T01:41:15.652Z,9.572
2022-11-05T01:42:16.002Z,9.581
2022-11-05T01:43:15.987Z,9.588
2022-11-05T01:44:15.296Z,9.586
2022-11-05T01:45:15.706Z,9.569
2022-11-05T01:46:15.988Z,9.563
2022-11-05T01:47:15.299Z,9.538
2022-11-05T01:48:15.391Z,9.527
2022-11-05T01:49:15.616Z,9.531
2022-11-05T01:50:16.131Z,9.560
2022-11-05T01:51:15.368Z,9.508
2022-11-05T01:52:15.757Z,9.541
2022-11-05T01:53:17.056Z,9.548
2022-11-05T01:54:15.415Z,9.566
2022-11-05T01:55:15.923Z,9.568
2022-11-05T01:56:16.016Z,9.588
2022-11-05T01:57:15.588Z,9.586
2022-11-05T01:58:16.061Z,9.578
2022-11-05T01:59:15.315Z,9.595
2022-11-05T02:00:16.794Z,9.596
2022-11-05T02:01:16.353Z,9.593
2022-11-05T02:02:15.681Z,9.583
2022-11-05T02:03:16.818Z,9.583
2022-11-05T02:04:17.000Z,9.591
2022-11-05T02:05:15.998Z,9.593
2022-11-05T02:06:15.268Z,9.583
2022-11-05T02:07:15.389Z,9.571
2022-11-05T02:08:15.547Z,9.548
2022-11-05T02:09:16.368Z,9.521
2022-11-05T02:10:15.853Z,9.493
2022-11-05T02:11:16.205Z,9.489
2022-11-05T02:12:15.673Z,9.481
2022-11-05T02:13:16.595Z,9.475
2022-11-05T02:14:15.910Z,9.456
2022-11-05T02:15:44.256Z,9.430
2022-11-05T02:16:15.258Z,9.430
2022-11-05T02:17:15.953Z,9.428
2022-11-05T02:18:16.401Z,9.406
2022-11-05T02:19:15.728Z,9.390
2022-11-05T02:20:16.229Z,9.375
2022-11-05T02:21:15.406Z,9.380
2022-11-05T02:22:15.836Z,9.359
2022-11-05T02:23:16.893Z,9.356
2022-11-05T02:24:16.044Z,9.338
2022-11-05T02:25:15.470Z,9.318
2022-11-05T02:26:15.613Z,9.323
2022-11-05T02:27:16.042Z,9.308
2022-11-05T02:28:15.269Z,9.318
2022-11-05T02:29:15.662Z,9.311
2022-11-05T02:30:16.476Z,9.300
2022-11-05T02:31:48.636Z,9.256
2022-11-05T02:32:16.231Z,9.256
2022-11-05T02:33:16.036Z,9.218
2022-11-05T02:34:15.588Z,9.176
2022-11-05T02:35:15.981Z,9.166
2022-11-05T02:36:16.295Z,9.148
2022-11-05T02:37:15.049Z,9.135
2022-11-05T02:38:15.269Z,9.133
2022-11-05T02:39:15.835Z,9.100
2022-11-05T02:40:16.217Z,9.085
2022-11-05T02:41:15.500Z,9.061
2022-11-05T02:42:15.636Z,9.043
2022-11-05T02:43:16.538Z,9.045
2022-11-05T02:44:15.809Z,9.038
2022-11-05T02:45:16.577Z,9.031
2022-11-05T02:46:16.193Z,9.031
2022-11-05T02:47:22.828Z,8.954
2022-11-05T02:48:16.076Z,8.954
2022-11-05T02:49:15.571Z,8.923
2022-11-05T02:50:16.069Z,8.908
2022-11-05T02:51:15.474Z,8.913
2022-11-05T02:52:15.765Z,8.892
2022-11-05T02:53:16.598Z,8.878
2022-11-05T02:54:15.954Z,8.878
2022-11-05T02:55:16.920Z,8.864
2022-11-05T02:56:16.124Z,8.845
2022-11-05T02:57:15.834Z,8.848
2022-11-05T02:58:16.344Z,8.829
2022-11-05T02:59:15.725Z,8.827
2022-11-05T03:00:17.349Z,8.812
2022-11-05T03:01:15.877Z,8.831
2022-11-05T03:02:16.372Z,8.833
2022-11-05T03:03:16.428Z,8.817
2022-11-05T03:04:15.596Z,8.793
2022-11-05T03:05:16.303Z,8.758
2022-11-05T03:06:15.439Z,8.734
2022-11-05T03:07:15.700Z,8.735
2022-11-05T03:08:15.940Z,8.727
2022-11-05T03:09:16.671Z,8.727
2022-11-05T03:10:16.121Z,8.727
2022-11-05T03:11:15.216Z,8.718
2022-11-05T03:12:15.266Z,8.710
2022-11-05T03:13:16.167Z,8.703
2022-11-05T03:14:15.453Z,8.681
2022-11-05T03:15:15.822Z,8.676
2022-11-05T03:16:16.059Z,8.640
2022-11-05T03:17:15.542Z,8.619
2022-11-05T03:18:15.938Z,8.579
2022-11-05T03:19:16.178Z,8.547
2022-11-05T03:20:15.599Z,8.565
2022-11-05T03:21:16.055Z,8.560
2022-11-05T03:22:15.147Z,8.569
2022-11-05T03:23:15.821Z,8.555
2022-11-05T03:24:16.032Z,8.516
2022-11-05T03:25:15.579Z,8.501
2022-11-05T03:26:15.861Z,8.524
2022-11-05T03:27:16.781Z,8.518
2022-11-05T03:28:16.348Z,8.491
2022-11-05T03:29:16.093Z,8.470
2022-11-05T03:30:15.260Z,8.493
2022-11-05T03:31:15.458Z,8.503
2022-11-05T03:32:15.730Z,8.513
2022-11-05T03:33:16.743Z,8.488
2022-11-05T03:34:15.997Z,8.484
2022-11-05T03:35:15.219Z,8.478
2022-11-05T03:36:15.327Z,8.454
2022-11-05T03:37:15.529Z,8.478
2022-11-05T03:38:15.850Z,8.473
2022-11-05T03:39:16.475Z,8.460
2022-11-05T03:40:16.204Z,8.470
2022-11-05T03:41:15.456Z,8.439
2022-11-05T03:42:15.379Z,8.418
2022-11-05T03:43:16.225Z,8.430
2022-11-05T03:44:15.377Z,8.421
2022-11-05T03:45:15.574Z,8.421
2022-11-05T03:46:15.952Z,8.398
2022-11-05T03:47:16.097Z,8.398
2022-11-05T03:48:15.649Z,8.385
2022-11-05T03:49:16.013Z,8.381
2022-11-05T03:50:15.340Z,8.398
2022-11-05T03:51:15.542Z,8.398
2022-11-05T03:52:15.525Z,8.381
2022-11-05T03:53:16.429Z,8.385
2022-11-05T03:54:15.388Z,8.404
2022-11-05T03:55:15.542Z,8.420
2022-11-05T03:56:15.631Z,8.421
2022-11-05T03:57:16.178Z,8.416
2022-11-05T03:58:15.485Z,8.409
2022-11-05T03:59:15.792Z,8.414
2022-11-05T04:00:16.900Z,8.393
2022-11-05T04:01:16.129Z,8.391
2022-11-05T04:02:15.733Z,8.391
2022-11-05T04:03:16.725Z,8.378
2022-11-05T04:04:16.113Z,8.359
2022-11-05T04:05:15.368Z,8.354
2022-11-05T04:06:15.715Z,8.346
2022-11-05T04:07:16.354Z,8.353
2022-11-05T04:08:19.895Z,8.345
2022-11-05T04:09:16.214Z,8.345
2022-11-05T04:10:15.630Z,8.358
2022-11-05T04:11:15.895Z,8.346
2022-11-05T04:12:16.257Z,8.366
2022-11-05T04:13:16.647Z,8.343
2022-11-05T04:14:15.832Z,8.338
2022-11-05T04:15:16.534Z,8.341
2022-11-05T04:16:15.780Z,8.346
2022-11-05T04:17:16.223Z,8.348
2022-11-05T04:18:15.551Z,8.364
2022-11-05T04:19:15.882Z,8.380
2022-11-05T04:20:16.402Z,8.361
2022-11-05T04:21:15.826Z,8.350
2022-11-05T04:22:16.021Z,8.363
2022-11-05T04:23:16.131Z,8.373
2022-11-05T04:24:15.731Z,8.359
2022-11-05T04:25:16.367Z,8.380
2022-11-05T04:26:15.678Z,8.396
2022-11-05T04:27:16.289Z,8.380
2022-11-05T04:28:15.712Z,8.369
2022-11-05T04:29:16.124Z,8.331
2022-11-05T04:30:15.591Z,8.338
2022-11-05T04:31:15.827Z,8.332
2022-11-05T04:32:16.041Z,8.326
2022-11-05T04:33:16.100Z,8.315
2022-11-05T04:34:15.708Z,8.326
2022-11-05T04:35:16.521Z,8.322
2022-11-05T04:36:16.074Z,8.317
2022-11-05T04:37:15.626Z,8.324
2022-11-05T04:38:15.653Z,8.326
2022-11-05T04:39:16.178Z,8.322
2022-11-05T04:40:15.781Z,8.305
2022-11-05T04:41:16.536Z,8.301
2022-11-05T04:42:16.094Z,8.305
2022-11-05T04:43:21.519Z,8.306
2022-11-05T04:44:16.380Z,8.289
2022-11-05T04:45:16.173Z,8.291
2022-11-05T04:46:15.425Z,8.298
2022-11-05T04:47:15.588Z,8.311
2022-11-05T04:48:15.893Z,8.306
2022-11-05T04:49:16.539Z,8.316
2022-11-05T04:50:16.491Z,8.324
2022-11-05T04:51:15.905Z,8.335
2022-11-05T04:52:16.244Z,8.335
2022-11-05T04:53:16.325Z,8.356
2022-11-05T04:54:15.717Z,8.353
2022-11-05T04:55:16.244Z,8.366
2022-11-05T04:56:15.767Z,8.375
2022-11-05T04:57:16.695Z,8.385
2022-11-05T04:58:16.106Z,8.383
2022-11-05T04:59:15.547Z,8.376
2022-11-05T05:00:17.174Z,8.363
2022-11-05T05:01:16.383Z,8.371
2022-11-05T05:02:16.130Z,8.376
2022-11-05T05:03:16.021Z,8.386
2022-11-05T05:04:15.550Z,8.390
2022-11-05T05:05:16.327Z,8.388
2022-11-05T05:06:15.785Z,8.388
2022-11-05T05:07:16.174Z,8.393
2022-11-05T05:08:15.587Z,8.398
2022-11-05T05:09:16.099Z,8.401
2022-11-05T05:10:15.758Z,8.404
2022-11-05T05:11:16.471Z,8.385
2022-11-05T05:12:16.203Z,8.395
2022-11-05T05:13:16.404Z,8.393
2022-11-05T05:14:16.276Z,8.380
2022-11-05T05:15:16.361Z,8.375
2022-11-05T05:16:15.643Z,8.375
2022-11-05T05:17:16.445Z,8.358
2022-11-05T05:18:16.273Z,8.338
2022-11-05T05:19:16.000Z,8.335
2022-11-05T05:20:15.369Z,8.305
2022-11-05T05:21:16.160Z,8.293
2022-11-05T05:22:15.701Z,8.274
2022-11-05T05:23:16.970Z,8.279
2022-11-05T05:24:16.146Z,8.288
2022-11-05T05:25:16.011Z,8.296
2022-11-05T05:26:15.496Z,8.305
2022-11-05T05:27:16.193Z,8.324
2022-11-05T05:28:15.767Z,8.329
2022-11-05T05:29:16.546Z,8.346
2022-11-05T05:30:16.249Z,8.364
2022-11-05T05:31:15.796Z,8.393
2022-11-05T05:32:16.413Z,8.399
2022-11-05T05:33:17.077Z,8.401
2022-11-05T05:34:15.457Z,8.411
2022-11-05T05:35:16.360Z,8.383
2022-11-05T05:36:17.537Z,8.385
2022-11-05T05:37:16.246Z,8.391
2022-11-05T05:38:15.790Z,8.383
2022-11-05T05:39:17.009Z,8.373
2022-11-05T05:40:15.742Z,8.363
2022-11-05T05:41:16.452Z,8.358
2022-11-05T05:42:15.791Z,8.361
2022-11-05T05:43:16.909Z,8.350
2022-11-05T05:44:15.966Z,8.366
2022-11-05T05:45:16.673Z,8.375
2022-11-05T05:46:15.790Z,8.358
2022-11-05T05:47:16.661Z,8.351
2022-11-05T05:48:16.361Z,8.356
2022-11-05T05:49:18.257Z,8.358
2022-11-05T05:50:15.562Z,8.350
2022-11-05T05:51:15.919Z,8.333
2022-11-05T05:52:16.095Z,8.317
2022-11-05T05:53:16.196Z,8.317
2022-11-05T05:54:15.329Z,8.314
2022-11-05T05:55:16.081Z,8.295
2022-11-05T05:56:15.316Z,8.289
2022-11-05T05:57:16.075Z,8.265
2022-11-05T05:58:15.319Z,8.246
2022-11-05T05:59:15.847Z,8.215
2022-11-05T06:00:17.501Z,8.204
2022-11-05T06:01:21.334Z,8.195
2022-11-05T06:02:16.348Z,8.168
2022-11-05T06:03:16.539Z,8.165
2022-11-05T06:04:15.612Z,8.157
2022-11-05T06:05:21.099Z,8.164
2022-11-05T06:06:15.664Z,8.135
2022-11-05T06:07:16.187Z,8.140
2022-11-05T06:08:15.958Z,8.144
2022-11-05T06:09:16.355Z,8.141
2022-11-05T06:10:16.373Z,8.140
2022-11-05T06:11:16.582Z,8.119
2022-11-05T06:12:16.213Z,8.118
2022-11-05T06:13:23.931Z,8.123
2022-11-05T06:14:16.434Z,8.123
2022-11-05T06:15:16.198Z,8.138
2022-11-05T06:16:16.499Z,8.144
2022-11-05T06:17:15.899Z,8.154
2022-11-05T06:18:16.133Z,8.158
2022-11-05T06:19:15.526Z,8.161
2022-11-05T06:20:15.998Z,8.181
2022-11-05T06:21:15.391Z,8.188
2022-11-05T06:22:15.921Z,8.193
2022-11-05T06:23:17.118Z,8.203
2022-11-05T06:24:15.666Z,8.211
2022-11-05T06:25:16.252Z,8.199
2022-11-05T06:26:15.658Z,8.194
2022-11-05T06:27:16.200Z,8.201
2022-11-05T06:28:15.470Z,8.215
2022-11-05T06:29:15.862Z,8.203
2022-11-05T06:30:16.613Z,8.194
2022-11-05T06:31:16.253Z,8.225
2022-11-05T06:32:15.567Z,8.238
2022-11-05T06:33:16.603Z,8.239
2022-11-05T06:34:16.204Z,8.244
2022-11-05T06:35:15.729Z,8.253
2022-11-05T06:36:16.230Z,8.253
2022-11-05T06:37:15.569Z,8.243
2022-11-05T06:38:15.852Z,8.241
2022-11-05T06:39:16.434Z,8.228
2022-11-05T06:40:15.818Z,8.236
2022-11-05T06:41:16.670Z,8.243
2022-11-05T06:42:25.241Z,8.231
2022-11-05T06:43:16.139Z,8.231
2022-11-05T06:44:15.480Z,8.221
2022-11-05T06:45:16.473Z,8.206
2022-11-05T06:46:16.394Z,8.203
2022-11-05T06:47:16.238Z,8.201
2022-11-05T06:48:15.856Z,8.203
2022-11-05T06:49:16.819Z,8.189
2022-11-05T06:50:16.655Z,8.180
2022-11-05T06:51:16.606Z,8.156
2022-11-05T06:52:16.669Z,8.161
2022-11-05T06:53:17.234Z,8.173
2022-11-05T06:54:15.943Z,8.173
2022-11-05T06:55:17.193Z,8.168
2022-11-05T06:56:15.926Z,8.158
2022-11-05T06:57:16.374Z,8.153
2022-11-05T06:58:15.762Z,8.166
2022-11-05T06:59:16.358Z,8.171
2022-11-05T07:00:17.009Z,8.173
2022-11-05T07:01:16.206Z,8.151
2022-11-05T07:02:16.565Z,8.153
2022-11-05T07:03:16.754Z,8.143
2022-11-05T07:04:16.487Z,8.130
2022-11-05T07:05:16.248Z,8.131
2022-11-05T07:06:15.894Z,8.133
2022-11-05T07:07:16.504Z,8.135
2022-11-05T07:08:16.141Z,8.133
2022-11-05T07:09:15.944Z,8.123
2022-11-05T07:10:16.699Z,8.121
2022-11-05T07:11:16.263Z,8.128
2022-11-05T07:12:15.723Z,8.125
2022-11-05T07:13:17.330Z,8.131
2022-11-05T07:14:16.193Z,8.156
2022-11-05T07:15:15.858Z,8.164
2022-11-05T07:16:16.182Z,8.176
2022-11-05T07:17:15.878Z,8.204
2022-11-05T07:18:16.437Z,8.231
2022-11-05T07:19:16.062Z,8.244
2022-11-05T07:20:15.926Z,8.268
2022-11-05T07:21:16.309Z,8.295
2022-11-05T07:22:15.894Z,8.316
2022-11-05T07:23:17.079Z,8.324
2022-11-05T07:24:15.492Z,8.352
2022-11-05T07:25:16.272Z,8.358
2022-11-05T07:26:15.567Z,8.369
2022-11-05T07:27:16.087Z,8.388
2022-11-05T07:28:15.325Z,8.390
2022-11-05T07:29:15.787Z,8.390
2022-11-05T07:30:16.480Z,8.399
2022-11-05T07:31:15.880Z,8.404
2022-11-05T07:32:16.538Z,8.404
2022-11-05T07:33:16.405Z,8.404
2022-11-05T07:34:15.683Z,8.421
2022-11-05T07:35:16.063Z,8.431
2022-11-05T07:36:15.336Z,8.437
2022-11-05T07:37:15.694Z,8.439
2022-11-05T07:38:16.277Z,8.434
2022-11-05T07:39:15.902Z,8.451
2022-11-05T07:40:16.404Z,8.468
2022-11-05T07:41:15.908Z,8.484
2022-11-05T07:42:16.124Z,8.515
2022-11-05T07:43:16.253Z,8.518
2022-11-05T07:44:15.808Z,8.520
2022-11-05T07:45:16.536Z,8.552
2022-11-05T07:46:19.418Z,8.567
2022-11-05T07:47:16.039Z,8.601
2022-11-05T07:48:15.116Z,8.616
2022-11-05T07:49:15.590Z,8.604
2022-11-05T07:50:15.950Z,8.604
2022-11-05T07:51:16.285Z,8.635
2022-11-05T07:52:15.570Z,8.637
2022-11-05T07:53:16.496Z,8.643
2022-11-05T07:54:15.627Z,8.685
2022-11-05T07:55:16.500Z,8.695
2022-11-05T07:56:15.898Z,8.710
2022-11-05T07:57:16.532Z,8.725
2022-11-05T07:58:16.171Z,8.738
2022-11-05T07:59:15.525Z,8.753
2022-11-05T08:00:17.497Z,8.761
2022-11-05T08:01:16.555Z,8.774
2022-11-05T08:02:17.305Z,8.784
2022-11-05T08:03:17.193Z,8.821
2022-11-05T08:04:16.228Z,8.826
2022-11-05T08:05:15.902Z,8.833
2022-11-05T08:06:16.428Z,8.856
2022-11-05T08:07:15.704Z,8.854
2022-11-05T08:08:15.987Z,8.869
2022-11-05T08:09:15.414Z,8.871
2022-11-05T08:10:16.193Z,8.888
2022-11-05T08:11:15.571Z,8.898
2022-11-05T08:12:15.944Z,8.899
2022-11-05T08:13:17.188Z,8.911
2022-11-05T08:14:15.803Z,8.953
2022-11-05T08:15:16.916Z,8.966
2022-11-05T08:16:16.801Z,8.981
2022-11-05T08:17:23.351Z,9.011
2022-11-05T08:18:15.853Z,9.011
2022-11-05T08:19:16.477Z,9.041
2022-11-05T08:20:16.172Z,9.058
2022-11-05T08:21:15.683Z,9.081
2022-11-05T08:22:16.082Z,9.095
2022-11-05T08:23:16.407Z,9.118
2022-11-05T08:24:15.743Z,9.164
2022-11-05T08:25:16.405Z,9.186
2022-11-05T08:26:20.803Z,9.204
2022-11-05T08:27:16.269Z,9.243
2022-11-05T08:28:15.846Z,9.260
2022-11-05T08:29:17.568Z,9.288
2022-11-05T08:30:16.711Z,9.288
2022-11-05T08:31:16.369Z,9.291
2022-11-05T08:32:15.717Z,9.333
2022-11-05T08:33:16.921Z,9.356
2022-11-05T08:34:16.214Z,9.391
2022-11-05T08:35:15.770Z,9.396
2022-11-05T08:36:16.371Z,9.420
2022-11-05T08:37:15.974Z,9.453
2022-11-05T08:38:16.416Z,9.486
2022-11-05T08:39:22.477Z,9.515
2022-11-05T08:40:16.210Z,9.515
2022-11-05T08:41:15.774Z,9.518
2022-11-05T08:42:18.413Z,9.529
2022-11-05T08:43:16.010Z,9.518
2022-11-05T08:44:29.113Z,9.551
2022-11-05T08:45:15.946Z,9.551
2022-11-05T08:46:30.131Z,9.574
2022-11-05T08:47:15.768Z,9.574
2022-11-05T08:48:29.915Z,9.582
2022-11-05T08:49:16.371Z,9.582
2022-11-05T08:50:16.194Z,9.626
2022-11-05T08:51:15.599Z,9.644
2022-11-05T08:52:15.978Z,9.671
2022-11-05T08:53:17.124Z,9.692
2022-11-05T08:54:15.716Z,9.708
2022-11-05T08:55:16.600Z,9.748
2022-11-05T08:56:16.294Z,9.753
2022-11-05T08:57:15.836Z,9.752
2022-11-05T08:58:16.378Z,9.770
2022-11-05T08:59:15.980Z,9.779
2022-11-05T09:00:17.330Z,9.807
2022-11-05T09:01:15.897Z,9.801
2022-11-05T09:02:17.075Z,9.805
2022-11-05T09:03:16.435Z,9.812
2022-11-05T09:04:15.868Z,9.793
2022-11-05T09:05:16.923Z,9.796
2022-11-05T09:06:16.309Z,9.836
2022-11-05T09:07:15.829Z,9.828
2022-11-05T09:08:16.534Z,9.845
2022-11-05T09:09:16.077Z,9.869
2022-11-05T09:10:15.738Z,9.861
2022-11-05T09:11:15.855Z,9.871
2022-11-05T09:12:18.769Z,9.878
2022-11-05T09:13:24.350Z,9.920
2022-11-05T09:14:15.867Z,9.920
2022-11-05T09:15:16.381Z,9.920
2022-11-05T09:16:15.546Z,9.935
2022-11-05T09:17:16.048Z,9.933
2022-11-05T09:18:15.860Z,9.944
2022-11-05T09:19:16.489Z,9.973
2022-11-05T09:20:16.000Z,9.998
2022-11-05T09:21:15.915Z,10.03
2022-11-05T09:22:16.375Z,10.03
2022-11-05T09:23:16.398Z,10.03
2022-11-05T09:24:15.512Z,10.05
2022-11-05T09:25:16.348Z,10.05
2022-11-05T09:26:16.018Z,10.09
2022-11-05T09:27:16.410Z,10.11
2022-11-05T09:28:22.097Z,10.08
2022-11-05T09:29:20.020Z,10.09
2022-11-05T09:30:15.903Z,10.09
2022-11-05T09:31:16.590Z,10.10
2022-11-05T09:32:15.831Z,10.12
2022-11-05T09:33:17.139Z,10.11
2022-11-05T09:34:15.693Z,10.13
2022-11-05T09:35:16.429Z,10.14
2022-11-05T09:36:15.822Z,10.13
2022-11-05T09:37:16.515Z,10.14
2022-11-05T09:38:16.235Z,10.18
2022-11-05T09:39:15.968Z,10.18
2022-11-05T09:40:16.997Z,10.19
2022-11-05T09:41:15.558Z,10.19
2022-11-05T09:42:16.089Z,10.21
2022-11-05T09:43:16.256Z,10.25
2022-11-05T09:44:43.478Z,10.31
2022-11-05T09:45:16.303Z,10.31
2022-11-05T09:46:15.922Z,10.32
2022-11-05T09:47:16.476Z,10.35
2022-11-05T09:48:15.999Z,10.36
2022-11-05T09:49:15.687Z,10.40
2022-11-05T09:50:16.044Z,10.41
2022-11-05T09:51:22.448Z,10.46
2022-11-05T09:52:16.546Z,10.51
2022-11-05T09:53:16.583Z,10.51
2022-11-05T09:54:16.026Z,10.5
2022-11-05T09:55:15.609Z,10.52
2022-11-05T09:56:16.810Z,10.54
2022-11-05T09:57:16.143Z,10.54
2022-11-05T09:58:15.932Z,10.59
2022-11-05T09:59:16.463Z,10.59
2022-11-05T10:00:17.072Z,10.67
2022-11-05T10:01:16.205Z,10.78
2022-11-05T10:02:16.040Z,10.78
2022-11-05T10:03:16.338Z,10.79
2022-11-05T10:04:15.804Z,10.80
2022-11-05T10:05:17.079Z,10.83
2022-11-05T10:06:15.463Z,10.82
2022-11-05T10:07:17.334Z,10.83
2022-11-05T10:08:16.181Z,10.84
2022-11-05T10:09:15.843Z,10.83
2022-11-05T10:10:16.548Z,10.82
2022-11-05T10:11:16.071Z,10.83
2022-11-05T10:12:15.417Z,10.83
2022-11-05T10:13:16.255Z,10.81
2022-11-05T10:14:15.840Z,10.80
2022-11-05T10:15:16.424Z,10.81
2022-11-05T10:16:15.646Z,10.84
2022-11-05T10:17:16.391Z,10.80
2022-11-05T10:18:15.926Z,10.76
2022-11-05T10:19:16.536Z,10.74
2022-11-05T10:20:16.340Z,10.72
2022-11-05T10:21:16.098Z,10.77
2022-11-05T10:22:15.699Z,10.86
2022-11-05T10:23:17.045Z,10.93
2022-11-05T10:24:15.626Z,10.99
2022-11-05T10:25:16.734Z,10.95
2022-11-05T10:26:16.301Z,10.94
2022-11-05T10:27:15.959Z,10.93
2022-11-05T10:28:16.379Z,10.92
2022-11-05T10:29:16.063Z,10.89
2022-11-05T10:30:16.351Z,10.86
2022-11-05T10:31:16.416Z,10.86
2022-11-05T10:32:16.045Z,10.90
2022-11-05T10:33:16.304Z,11.01
2022-11-05T10:34:15.769Z,11.05
2022-11-05T10:35:16.774Z,11.01
2022-11-05T10:36:16.422Z,10.97
2022-11-05T10:37:16.098Z,10.93
2022-11-05T10:38:15.825Z,10.97
2022-11-05T10:39:16.932Z,10.95
2022-11-05T10:40:16.360Z,10.97
2022-11-05T10:41:16.137Z,10.96
2022-11-05T10:42:15.774Z,10.92
2022-11-05T10:43:16.813Z,10.93
2022-11-05T10:45:16.631Z,10.97
2022-11-05T10:46:16.214Z,10.98
2022-11-05T10:47:15.880Z,10.95
2022-11-05T10:48:16.670Z,11.01
2022-11-05T10:49:16.221Z,11.04
2022-11-05T10:50:16.116Z,11.06
2022-11-05T10:51:16.019Z,11.09
2022-11-05T10:52:15.774Z,11.06
2022-11-05T10:53:16.678Z,11.05
2022-11-05T10:54:16.292Z,11.05
2022-11-05T10:55:20.770Z,11.13
2022-11-05T10:56:16.205Z,11.13
2022-11-05T10:57:16.053Z,11.16
2022-11-05T10:58:15.941Z,11.18
2022-11-05T10:59:18.116Z,11.21
2022-11-05T11:00:16.604Z,11.24
2022-11-05T11:01:16.511Z,11.22
2022-11-05T11:02:16.384Z,11.18
2022-11-05T11:03:24.191Z,11.25
2022-11-05T11:04:15.625Z,11.25
2022-11-05T11:05:16.563Z,11.29
2022-11-05T11:06:16.283Z,11.29
2022-11-05T11:07:24.105Z,11.27
2022-11-05T11:08:16.092Z,11.27
2022-11-05T11:09:15.992Z,11.24
2022-11-05T11:10:15.898Z,11.25
2022-11-05T11:11:16.726Z,11.23
2022-11-05T11:12:16.869Z,11.23
2022-11-05T11:13:17.055Z,11.26
2022-11-05T11:14:15.852Z,11.26
2022-11-05T11:15:16.762Z,11.25
2022-11-05T11:16:16.493Z,11.27
2022-11-05T11:17:16.177Z,11.28
2022-11-05T11:18:16.113Z,11.23
2022-11-05T11:19:16.108Z,11.25
2022-11-05T11:20:15.934Z,11.27
2022-11-05T11:21:31.065Z,11.35
2022-11-05T11:22:15.770Z,11.35
2022-11-05T11:23:16.793Z,11.33
2022-11-05T11:24:16.539Z,11.33
2022-11-05T11:25:16.216Z,11.36
2022-11-05T11:26:15.802Z,11.36
2022-11-05T11:27:35.312Z,11.37
2022-11-05T11:28:15.494Z,11.37
2022-11-05T11:29:16.059Z,11.34
2022-11-05T11:30:15.924Z,11.29
2022-11-05T11:31:16.805Z,11.26
2022-11-05T11:32:16.185Z,11.27
2022-11-05T11:33:16.724Z,11.29
2022-11-05T11:34:16.310Z,11.28
2022-11-05T11:35:15.966Z,11.30
2022-11-05T11:36:16.476Z,11.30
2022-11-05T11:37:22.163Z,11.28
2022-11-05T11:38:16.066Z,11.28
2022-11-05T11:39:16.316Z,11.26
2022-11-05T11:40:16.546Z,11.30
2022-11-05T11:41:16.414Z,11.26
2022-11-05T11:42:16.221Z,11.27
2022-11-05T11:43:16.873Z,11.24
2022-11-05T11:44:16.596Z,11.25
2022-11-05T11:45:16.658Z,11.22
2022-11-05T11:46:21.031Z,11.20
2022-11-05T11:47:16.068Z,11.19
2022-11-05T11:48:15.943Z,11.22
2022-11-05T11:49:16.637Z,11.22
2022-11-05T11:50:16.505Z,11.22
2022-11-05T11:51:48.030Z,11.27
2022-11-05T11:52:16.642Z,11.27
2022-11-05T11:53:17.074Z,11.28
2022-11-05T11:54:15.826Z,11.23
2022-11-05T11:55:16.698Z,11.23
2022-11-05T11:56:16.428Z,11.23
2022-11-05T11:57:40.030Z,11.23
2022-11-05T11:58:15.958Z,11.26
2022-11-05T11:59:16.842Z,11.31
2022-11-05T12:00:18.002Z,11.34
2022-11-05T12:01:15.737Z,11.30
2022-11-05T12:02:16.807Z,11.28
2022-11-05T12:03:16.831Z,11.29
2022-11-05T12:04:15.811Z,11.29
2022-11-05T12:05:16.437Z,11.31
2022-11-05T12:06:16.096Z,11.31
2022-11-05T12:07:15.923Z,11.33
2022-11-05T12:08:16.278Z,11.35
2022-11-05T12:09:15.863Z,11.36
2022-11-05T12:10:16.708Z,11.34
2022-11-05T12:11:16.255Z,11.32
2022-11-05T12:12:15.839Z,11.31
2022-11-05T12:13:17.146Z,11.32
2022-11-05T12:14:15.813Z,11.30
2022-11-05T12:15:16.596Z,11.30
2022-11-05T12:16:16.042Z,11.32
2022-11-05T12:17:16.250Z,11.32
2022-11-05T12:18:16.103Z,11.34
2022-11-05T12:19:15.866Z,11.33
2022-11-05T12:20:16.567Z,11.35
2022-11-05T12:21:29.308Z,11.37
2022-11-05T12:22:15.695Z,11.39
2022-11-05T12:23:16.782Z,11.40
2022-11-05T12:24:16.472Z,11.39
2022-11-05T12:25:16.368Z,11.38
2022-11-05T12:26:15.773Z,11.38
2022-11-05T12:27:16.772Z,11.35
2022-11-05T12:28:16.400Z,11.34
2022-11-05T12:29:24.997Z,11.34
2022-11-05T12:30:15.688Z,11.34
2022-11-05T12:31:16.438Z,11.34
2022-11-05T12:32:15.461Z,11.36
2022-11-05T12:33:16.425Z,11.37
2022-11-05T12:34:15.999Z,11.35
2022-11-05T12:35:16.077Z,11.36
2022-11-05T12:36:16.007Z,11.38
2022-11-05T12:37:15.740Z,11.40
2022-11-05T12:38:16.325Z,11.41
2022-11-05T12:39:16.367Z,11.42
2022-11-05T12:40:15.906Z,11.42
2022-11-05T12:41:15.733Z,11.42
2022-11-05T12:42:16.390Z,11.42
2022-11-05T12:43:18.629Z,11.44
2022-11-05T12:44:16.323Z,11.41
2022-11-05T12:45:16.268Z,11.38
2022-11-05T12:46:15.994Z,11.37
2022-11-05T12:47:15.960Z,11.39
2022-11-05T12:48:16.121Z,11.39
2022-11-05T12:49:16.081Z,11.40
2022-11-05T12:50:15.739Z,11.43
2022-11-05T12:51:16.433Z,11.42
2022-11-05T12:52:16.299Z,11.40
2022-11-05T12:53:16.396Z,11.42